Time;durP1;ratioP1;P1;durP2;ratioP2;P2;SDS_P1;SDS_P2;PMS_P1;PMS_P2;Temp;Humidity;BMP_temperature;BMP_pressure;BME280_temperature;BME280_humidity;BME280_pressure;Samples;Min_cycle;Max_cycle;Signal;HPM_P1;HPM_P2
2022/06/18 00:00:17;;;;;;;3.65;1.30;;;;;;;23.29;46.21;100490.09;5052823;28;20036;-80
2022/06/18 00:02:43;;;;;;;3.55;1.40;;;;;;;23.26;46.32;100494.50;5053122;28;20029;-80
2022/06/18 00:05:11;;;;;;;3.47;1.45;;;;;;;23.27;46.16;100492.50;5052741;28;20056;-80
2022/06/18 00:07:45;;;;;;;15.85;2.72;;;;;;;23.23;46.27;100486.97;5052779;28;20040;-80
2022/06/18 00:10:16;;;;;;;3.47;1.52;;;;;;;23.21;46.63;100485.81;5052948;28;20041;-81
2022/06/18 00:15:29;;;;;;;3.83;1.60;;;;;;;23.15;46.69;100481.91;5052503;28;20107;-81
2022/06/18 00:17:55;;;;;;;3.10;1.35;;;;;;;23.13;46.70;100476.75;5034829;28;20046;-81
2022/06/18 00:20:23;;;;;;;3.65;1.17;;;;;;;23.13;46.57;100476.75;5052583;28;20391;-80
2022/06/18 00:22:53;;;;;;;2.70;1.30;;;;;;;23.10;46.98;100477.59;5052811;28;20037;-82
2022/06/18 00:25:30;;;;;;;2.42;1.08;;;;;;;23.09;46.89;100478.78;5052667;28;20039;-80
2022/06/18 00:27:55;;;;;;;3.22;1.73;;;;;;;23.10;46.87;100474.81;5052541;28;20040;-80
2022/06/18 00:30:23;;;;;;;4.43;1.30;;;;;;;23.09;46.79;100460.13;5052540;28;20475;-80
2022/06/18 00:32:49;;;;;;;2.72;1.15;;;;;;;23.11;46.68;100463.28;5052406;28;20021;-80
2022/06/18 00:35:15;;;;;;;3.30;1.30;;;;;;;23.11;46.77;100465.28;5052257;28;20380;-81
2022/06/18 00:37:41;;;;;;;3.08;1.40;;;;;;;23.09;46.82;100460.13;5052521;28;20436;-80
2022/06/18 00:40:36;;;;;;;3.65;1.40;;;;;;;23.10;46.63;100455.38;5034561;28;20113;-81
2022/06/18 00:43:15;;;;;;;3.30;1.23;;;;;;;23.09;46.71;100462.13;5050278;28;20045;-80
2022/06/18 00:45:40;;;;;;;2.97;1.20;;;;;;;23.08;46.84;100463.31;5052119;28;20055;-79
2022/06/18 00:48:50;;;;;;;4.72;1.77;;;;;;;23.08;46.78;100457.75;5052207;28;20515;-81
2022/06/18 00:51:26;;;;;;;2.63;1.25;;;;;;;23.03;47.03;100447.91;5036507;28;20056;-80
2022/06/18 00:53:57;;;;;;;3.40;1.30;;;;;;;23.01;46.83;100455.03;5052791;28;20051;-80
2022/06/18 00:56:38;;;;;;;3.35;1.40;;;;;;;23.00;47.10;100453.47;5052776;28;20341;-81
2022/06/18 00:59:22;;;;;;;4.35;1.20;;;;;;;22.95;47.25;100448.38;5052674;28;20044;-83
2022/06/18 01:01:48;;;;;;;2.40;1.10;;;;;;;22.95;47.10;100446.38;5052667;28;20116;-80
2022/06/18 01:04:40;;;;;;;3.40;1.30;;;;;;;22.95;47.28;100449.16;5052152;28;20032;-80
2022/06/18 01:07:38;;;;;;;2.70;1.30;;;;;;;22.91;47.08;100445.63;5034442;28;20028;-80
2022/06/18 01:10:30;;;;;;;3.72;1.75;;;;;;;22.88;47.40;100446.44;5052564;28;20031;-80
2022/06/18 01:13:08;;;;;;;3.88;1.45;;;;;;;22.84;47.48;100447.66;5053233;28;20033;-81
2022/06/18 01:15:34;;;;;;;4.40;1.15;;;;;;;22.82;47.45;100442.53;5055750;28;20028;-80
2022/06/18 01:18:12;;;;;;;3.83;1.40;;;;;;;22.81;47.62;100449.25;5055697;28;20040;-81
2022/06/18 01:20:53;;;;;;;4.60;1.60;;;;;;;22.84;47.42;100436.56;5038137;28;20481;-80
2022/06/18 01:23:28;;;;;;;3.10;1.30;;;;;;;22.82;47.37;100436.97;5055653;28;20052;-80
2022/06/18 01:26:12;;;;;;;2.35;1.00;;;;;;;22.84;47.25;100434.56;5038169;28;20029;-82
2022/06/18 01:28:46;;;;;;;2.35;1.15;;;;;;;22.83;47.24;100438.53;5054229;28;20029;-81
2022/06/18 01:31:12;;;;;;;3.17;1.35;;;;;;;22.88;47.08;100429.78;5055855;28;20032;-81
2022/06/18 01:33:38;;;;;;;2.85;1.10;;;;;;;22.92;46.93;100429.75;5055373;28;20029;-80
2022/06/18 01:36:12;;;;;;;2.45;1.05;;;;;;;22.97;46.64;100438.41;5055324;28;20468;-78
2022/06/18 01:38:44;;;;;;;4.32;1.45;;;;;;;22.99;46.72;100430.47;5055563;28;20136;-79
2022/06/18 01:44:13;;;;;;;2.72;1.10;;;;;;;23.09;46.36;100417.69;5055714;28;20039;-80
2022/06/18 01:46:43;;;;;;;2.83;1.13;;;;;;;23.13;46.19;100420.41;5055524;28;20025;-81
2022/06/18 01:49:13;;;;;;;2.60;1.17;;;;;;;23.16;46.17;100425.94;5055543;28;20029;-79
2022/06/18 01:51:42;;;;;;;3.38;1.13;;;;;;;23.17;46.42;100423.94;5055055;28;20079;-81
2022/06/18 01:54:54;;;;;;;3.28;1.13;;;;;;;23.17;46.20;100426.72;5055124;28;20028;-80
2022/06/18 01:57:41;;;;;;;;;;;;;;;;;;;;;
2022/06/18 02:00:14;;;;;;;2.25;1.10;;;;;;;23.05;46.61;100414.94;5054875;28;20079;-79
2022/06/18 02:02:53;;;;;;;4.03;1.58;;;;;;;23.00;46.66;100420.13;5036268;28;20040;-80
2022/06/18 02:05:23;;;;;;;3.78;1.10;;;;;;;22.98;46.88;100417.78;5037584;28;20037;-79
2022/06/18 02:07:52;;;;;;;2.25;0.98;;;;;;;22.97;46.99;100418.19;5036804;28;20044;-80
2022/06/18 02:10:30;;;;;;;2.60;1.20;;;;;;;22.90;47.28;100416.28;5037017;28;20451;-79
2022/06/18 02:12:58;;;;;;;2.58;1.10;;;;;;;22.82;47.51;100423.09;5054641;28;20084;-81
2022/06/18 02:15:34;;;;;;;4.35;1.30;;;;;;;22.78;47.76;100422.31;5055002;28;20120;-81
2022/06/18 02:18:03;;;;;;;2.55;1.10;;;;;;;22.75;47.76;100423.91;5054590;28;20087;-80
2022/06/18 02:21:13;;;;;;;3.90;1.10;;;;;;;22.70;47.97;100418.81;5054715;28;20498;-80
2022/06/18 02:23:41;;;;;;;2.42;0.98;;;;;;;22.66;48.11;100411.69;5025877;28;20048;-82
2022/06/18 02:26:10;;;;;;;2.22;0.93;;;;;;;22.60;48.23;100418.91;5054600;28;20040;-80
2022/06/18 02:28:42;;;;;;;2.83;1.23;;;;;;;22.56;48.26;100415.38;5054774;28;20056;-82
2022/06/18 02:31:15;;;;;;;4.45;1.95;;;;;;;22.51;48.37;100411.06;5054628;28;20104;-83
2022/06/18 02:33:57;;;;;;;3.28;1.35;;;;;;;22.48;48.65;100418.19;5036906;28;20456;-81
2022/06/18 02:36:31;;;;;;;5.90;1.35;;;;;;;22.45;48.77;100402.34;5055269;28;20025;-84
2022/06/18 02:39:13;;;;;;;3.40;1.02;;;;;;;22.44;48.57;100411.88;5036483;28;20055;-82
2022/06/18 02:41:42;;;;;;;2.75;1.13;;;;;;;22.42;48.79;100403.19;5054521;28;20049;-82
2022/06/18 02:44:11;;;;;;;2.45;1.02;;;;;;;22.44;48.87;100411.88;5054251;28;20055;-81
2022/06/18 02:46:37;;;;;;;3.13;1.25;;;;;;;22.43;48.95;100409.53;5054255;28;20025;-83
2022/06/18 02:49:05;;;;;;;2.80;1.30;;;;;;;22.42;48.98;100397.63;5036410;28;20116;-81
2022/06/18 02:51:33;;;;;;;2.95;1.35;;;;;;;22.44;48.93;100403.56;5053773;28;20032;-81
2022/06/18 02:53:58;;;;;;;3.42;1.20;;;;;;;22.49;49.10;100414.22;5054131;28;20024;-82
2022/06/18 02:56:26;;;;;;;3.17;1.27;;;;;;;22.51;49.12;100413.84;5053701;28;20025;-79
2022/06/18 02:58:52;;;;;;;3.25;1.20;;;;;;;22.57;49.04;100403.06;5054372;28;20043;-83
2022/06/18 03:01:21;;;;;;;3.90;1.23;;;;;;;22.48;49.34;100407.09;5052787;28;20029;-82
2022/06/18 03:03:54;;;;;;;2.65;1.15;;;;;;;22.41;49.32;100412.69;5035796;28;20037;-81
2022/06/18 03:06:22;;;;;;;3.70;1.13;;;;;;;22.33;49.52;100411.16;5053538;28;20509;-82
2022/06/18 03:08:49;;;;;;;2.72;1.20;;;;;;;22.27;49.62;100412.00;5036128;28;20072;-81
2022/06/18 03:14:04;;;;;;;2.30;1.20;;;;;;;22.20;49.99;100415.63;5053580;28;20032;-80
2022/06/18 03:16:30;;;;;;;2.55;1.20;;;;;;;22.17;50.04;100419.19;5053692;28;20429;-81
2022/06/18 03:18:58;;;;;;;3.33;1.40;;;;;;;22.13;50.12;100413.69;5053585;28;20460;-80
2022/06/18 03:21:42;;;;;;;2.80;1.17;;;;;;;22.14;50.13;100411.69;5035905;28;20383;-81
2022/06/18 03:24:09;;;;;;;3.08;1.30;;;;;;;22.08;50.24;100427.19;5035317;28;20033;-81
2022/06/18 03:26:44;;;;;;;4.03;1.70;;;;;;;22.04;50.48;100431.94;5053963;28;20044;-81
2022/06/18 03:29:10;;;;;;;3.28;1.33;;;;;;;21.99;50.76;100430.38;5036259;28;20146;-84
2022/06/18 03:31:39;;;;;;;4.18;1.30;;;;;;;21.97;50.72;100423.66;5035724;28;20495;-83
2022/06/18 03:34:05;;;;;;;4.30;1.40;;;;;;;21.92;50.93;100422.88;5035906;28;20531;-82
2022/06/18 03:36:30;;;;;;;3.10;1.30;;;;;;;21.92;50.86;100417.34;5052852;28;20118;-80
2022/06/18 03:38:56;;;;;;;4.50;1.35;;;;;;;21.89;51.01;100423.72;5053069;28;20029;-82
2022/06/18 03:41:25;;;;;;;2.20;0.95;;;;;;;;;;5053929;28;20049;-82
2022/06/18 03:43:52;;;;;;;4.05;1.33;;;;;;;21.89;51.12;100426.47;5054047;28;20029;-81
2022/06/18 03:46:18;;;;;;;3.60;1.17;;;;;;;21.88;51.29;100424.91;5053451;28;20036;-82
2022/06/18 03:48:56;;;;;;;3.17;1.40;;;;;;;21.86;51.13;100421.75;5053292;28;20024;-83
2022/06/18 03:51:26;;;;;;;4.03;1.40;;;;;;;21.86;51.38;100421.75;5053643;28;20029;-82
2022/06/18 03:53:53;;;;;;;4.22;1.40;;;;;;;21.85;51.39;100425.72;5053291;28;20060;-83
2022/06/18 03:56:22;;;;;;;3.00;1.30;;;;;;;21.84;51.43;100429.69;5035395;28;20040;-81
2022/06/18 03:58:48;;;;;;;2.45;1.10;;;;;;;21.82;51.47;100429.25;5053179;28;20486;-81
2022/06/18 04:01:17;;;;;;;3.70;1.45;;;;;;;21.82;51.56;100429.25;5053302;28;20147;-82
2022/06/18 04:03:42;;;;;;;3.35;1.20;;;;;;;21.82;51.72;100423.72;5053233;28;20036;-81
2022/06/18 04:06:10;;;;;;;4.50;1.55;;;;;;;21.82;51.73;100420.94;5052856;28;20033;-80
2022/06/18 04:08:39;;;;;;;3.05;1.10;;;;;;;21.83;51.74;100424.50;5053436;28;20060;-81
2022/06/18 04:11:09;;;;;;;4.07;1.33;;;;;;;21.80;51.82;100420.56;5053356;28;20061;-82
2022/06/18 04:13:34;;;;;;;3.65;1.30;;;;;;;21.80;51.85;100428.09;5052851;28;20082;-82
2022/06/18 04:16:00;;;;;;;3.53;1.23;;;;;;;21.76;51.99;100425.34;5053208;28;20448;-80
2022/06/18 04:18:25;;;;;;;3.72;1.70;;;;;;;21.79;51.98;100430.09;5053399;28;20040;-81
2022/06/18 04:20:59;;;;;;;2.90;1.10;;;;;;;21.76;52.01;100427.34;5053731;28;20032;-83
2022/06/18 04:23:24;;;;;;;3.70;1.20;;;;;;;21.81;52.04;100429.66;5035417;28;20025;-83
2022/06/18 04:25:53;;;;;;;3.80;1.33;;;;;;;21.79;52.03;100434.84;5053420;28;20040;-84
2022/06/18 04:28:19;;;;;;;2.75;1.17;;;;;;;21.75;52.11;100429.31;5053476;28;20056;-82
2022/06/18 04:30:44;;;;;;;3.15;1.23;;;;;;;21.75;52.32;100434.06;5053546;28;20063;-85
2022/06/18 04:33:11;;;;;;;8.15;1.40;;;;;;;21.74;52.50;100429.72;5053577;28;20079;-85
2022/06/18 04:35:37;;;;;;;2.75;1.27;;;;;;;21.71;52.49;100425.78;5053152;28;20104;-83
2022/06/18 04:38:03;;;;;;;3.25;1.25;;;;;;;21.70;52.64;100424.19;5053736;28;20412;-81
2022/06/18 04:40:34;;;;;;;3.90;1.20;;;;;;;21.72;52.76;100429.34;5051722;28;20064;-84
2022/06/18 04:43:04;;;;;;;3.10;1.23;;;;;;;21.70;52.79;100428.94;5053056;28;20407;-84
2022/06/18 04:45:36;;;;;;;3.55;1.27;;;;;;;21.72;52.69;100421.81;5036149;28;20459;-84
2022/06/18 04:48:09;;;;;;;3.72;1.40;;;;;;;21.70;52.90;100428.94;5055889;28;20426;-86
2022/06/18 04:50:38;;;;;;;3.55;1.50;;;;;;;21.71;53.00;100425.78;5057662;28;20075;-84
2022/06/18 04:53:05;;;;;;;2.75;1.10;;;;;;;21.73;52.91;100423.38;5057172;28;20434;-84
2022/06/18 04:55:31;;;;;;;3.33;1.40;;;;;;;21.74;52.80;100422.19;5056076;28;20530;-82
2022/06/18 04:58:04;;;;;;;2.67;1.35;;;;;;;21.73;52.92;100403.19;5057200;28;20052;-83
2022/06/18 05:00:29;;;;;;;6.32;2.38;;;;;;;21.75;52.91;100415.47;5057603;28;20029;-86
2022/06/18 05:02:54;;;;;;;4.00;1.58;;;;;;;21.78;53.10;100413.84;5058197;28;20107;-85
2022/06/18 05:05:25;;;;;;;3.63;1.40;;;;;;;21.83;53.04;100417.00;5057655;28;20036;-85
2022/06/18 05:07:50;;;;;;;4.57;1.30;;;;;;;21.88;52.94;100413.81;5058154;28;20025;-83
2022/06/18 05:10:18;;;;;;;3.90;1.40;;;;;;;21.90;52.88;100416.97;5057296;28;20037;-84
2022/06/18 05:12:47;;;;;;;3.83;1.52;;;;;;;21.94;52.79;100414.16;5039311;28;20490;-85
2022/06/18 05:15:12;;;;;;;3.75;1.60;;;;;;;22.00;52.53;100417.28;5057707;28;20029;-82
2022/06/18 05:17:43;;;;;;;3.08;1.65;;;;;;;22.09;52.60;100412.91;5057092;28;20055;-83
2022/06/18 05:20:12;;;;;;;3.38;1.33;;;;;;;22.13;52.39;100422.00;5057179;28;20425;-83
2022/06/18 05:22:37;;;;;;;3.40;1.38;;;;;;;22.15;52.52;100413.28;5056493;28;20037;-81
2022/06/18 05:25:05;;;;;;;3.75;1.42;;;;;;;22.20;52.50;100410.88;5056380;28;20035;-81
2022/06/18 05:27:35;;;;;;;2.88;1.27;;;;;;;22.21;52.56;100411.66;5055557;28;20028;-80
2022/06/18 05:30:01;;;;;;;8.73;1.52;;;;;;;22.19;52.59;100414.84;5037161;28;20037;-78
2022/06/18 05:32:26;;;;;;;4.80;1.83;;;;;;;22.21;52.71;100414.44;5055246;28;20029;-79
2022/06/18 05:34:52;;;;;;;6.32;2.28;;;;;;;22.22;52.39;100404.94;5055141;28;20047;-78
2022/06/18 05:37:21;;;;;;;3.40;1.50;;;;;;;22.23;52.40;100403.72;5037272;28;20029;-80
2022/06/18 05:39:49;;;;;;;3.05;1.35;;;;;;;22.25;52.31;100404.09;5055009;28;20502;-79
2022/06/18 05:42:15;;;;;;;7.57;2.10;;;;;;;22.29;52.19;100407.63;5055209;28;20095;-80
2022/06/18 05:44:40;;;;;;;4.10;1.83;;;;;;;22.27;52.35;100412.00;5055512;28;20041;-80
2022/06/18 05:47:17;;;;;;;3.50;1.52;;;;;;;22.36;52.26;100404.81;5037609;28;20029;-81
2022/06/18 05:49:42;;;;;;;2.75;1.40;;;;;;;22.43;51.83;100403.97;5055777;28;20043;-83
2022/06/18 05:52:09;;;;;;;3.15;1.30;;;;;;;22.50;51.99;100404.69;5055661;28;20033;-83
2022/06/18 05:54:35;;;;;;;3.72;1.10;;;;;;;22.55;51.70;100399.91;5055213;28;20103;-81
2022/06/18 05:57:00;;;;;;;3.50;1.50;;;;;;;22.61;51.78;100403.81;5055680;28;20035;-84
2022/06/18 05:59:25;;;;;;;3.40;1.30;;;;;;;22.62;51.72;100402.63;5054813;28;20033;-83
2022/06/18 06:02:06;;;;;;;5.60;1.85;;;;;;;22.68;51.41;100396.25;5054995;28;20090;-81
2022/06/18 06:04:32;;;;;;;5.03;1.85;;;;;;;22.73;51.32;100400.56;5054684;28;20051;-79
2022/06/18 06:07:17;;;;;;;5.18;2.10;;;;;;;22.87;51.24;100392.13;5055096;28;20041;-81
2022/06/18 06:12:26;;;;;;;3.20;1.40;;;;;;;23.26;50.31;100407.59;5054453;28;20439;-79
2022/06/18 06:14:52;;;;;;;2.72;1.38;;;;;;;23.14;50.73;100408.09;5054884;28;20116;-79
2022/06/18 06:17:28;;;;;;;3.92;1.70;;;;;;;23.19;50.54;100410.44;5054478;28;20039;-80
2022/06/18 06:20:04;;;;;;;3.42;1.70;;;;;;;23.27;50.53;100411.94;5054462;28;20529;-79
2022/06/18 06:22:33;;;;;;;3.63;1.50;;;;;;;23.36;50.49;100407.47;5055527;28;20037;-78
2022/06/18 06:24:59;;;;;;;2.90;1.30;;;;;;;23.36;50.45;100415.03;5039595;28;20025;-79
2022/06/18 06:27:24;;;;;;;3.40;1.42;;;;;;;23.33;50.46;100405.50;5053383;28;20056;-79
2022/06/18 06:29:50;;;;;;;3.95;1.70;;;;;;;23.39;50.35;100411.41;5054501;28;20458;-79
2022/06/18 06:32:15;;;;;;;3.53;1.30;;;;;;;23.47;50.29;100414.88;5053991;28;20606;-80
2022/06/18 06:34:40;;;;;;;5.38;1.52;;;;;;;23.73;50.02;100416.19;5053939;28;20392;-78
2022/06/18 06:37:06;;;;;;;3.65;1.63;;;;;;;23.95;49.06;100415.47;5036007;28;20048;-79
2022/06/18 06:39:37;;;;;;;3.35;1.60;;;;;;;24.35;48.36;100418.47;5053872;28;20482;-79
2022/06/18 06:42:03;;;;;;;2.67;1.08;;;;;;;24.48;47.40;100413.91;5053942;28;20054;-81
2022/06/18 06:44:28;;;;;;;3.35;1.50;;;;;;;24.95;46.79;100418.69;5054526;28;20045;-81
2022/06/18 06:46:55;;;;;;;7.65;1.40;;;;;;;25.05;46.43;100414.97;5036403;28;20529;-79
2022/06/18 06:49:20;;;;;;;3.15;1.65;;;;;;;24.89;46.38;100424.75;5054691;28;20028;-81
2022/06/18 06:51:46;;;;;;;3.33;1.27;;;;;;;25.00;46.28;100412.66;5053745;28;20073;-79
2022/06/18 06:54:11;;;;;;;3.22;1.27;;;;;;;25.01;46.44;100417.00;5053612;28;20438;-81
2022/06/18 06:59:22;;;;;;;3.35;1.60;;;;;;;25.36;45.82;100416.38;5054016;28;20106;-80
2022/06/18 07:01:47;;;;;;;3.30;1.35;;;;;;;25.69;45.04;100422.84;5053508;28;20090;-78
2022/06/18 07:04:13;;;;;;;4.15;1.50;;;;;;;25.63;44.95;100410.63;5053426;28;20036;-79
2022/06/18 07:06:40;;;;;;;3.65;1.65;;;;;;;25.67;44.93;100418.91;5053144;28;20448;-78
2022/06/18 07:09:06;;;;;;;3.63;1.30;;;;;;;25.67;45.37;100418.91;5053106;28;20036;-80
2022/06/18 07:11:33;;;;;;;2.55;1.23;;;;;;;25.90;44.76;100398.53;5052870;28;20207;-78
2022/06/18 07:13:59;;;;;;;4.05;1.30;;;;;;;26.08;44.36;100399.69;5053148;28;20033;-80
2022/06/18 07:16:25;;;;;;;4.43;1.50;;;;;;;26.31;43.92;100392.38;5054814;28;20025;-81
2022/06/18 07:18:52;;;;;;;5.25;1.50;;;;;;;26.61;43.63;100396.84;5053150;28;20116;-80
2022/06/18 07:21:19;;;;;;;3.63;1.30;;;;;;;26.52;43.78;100396.69;5053276;28;20040;-80
2022/06/18 07:23:44;;;;;;;3.72;1.35;;;;;;;26.83;43.12;100397.09;5053329;28;20040;-81
2022/06/18 07:26:13;;;;;;;3.00;1.20;;;;;;;26.99;43.00;100399.84;5053715;28;20037;-78
2022/06/18 07:28:39;;;;;;;3.42;1.40;;;;;;;26.31;43.99;100397.97;5053332;28;20064;-80
2022/06/18 07:31:04;;;;;;;5.07;1.70;;;;;;;26.41;43.93;100391.38;5035296;28;20103;-79
2022/06/18 07:33:33;;;;;;;4.05;1.70;;;;;;;26.23;44.24;100385.41;5053146;28;20037;-80
2022/06/18 07:35:59;;;;;;;4.22;1.42;;;;;;;26.12;44.88;100387.66;5053524;28;20028;-79
2022/06/18 07:38:24;;;;;;;4.15;1.40;;;;;;;25.95;45.43;100387.63;5052910;28;20484;-81
2022/06/18 07:40:52;;;;;;;2.53;1.33;;;;;;;26.13;44.63;100387.22;5052791;28;20053;-79
2022/06/18 07:43:33;;;;;;;4.18;1.45;;;;;;;25.94;45.50;100385.28;5052825;28;20072;-80
2022/06/18 07:46:01;;;;;;;3.08;1.50;;;;;;;26.04;45.37;100378.69;5052679;28;20061;-80
2022/06/18 07:48:26;;;;;;;3.88;1.40;;;;;;;25.91;45.40;100378.56;5052768;28;20079;-80
2022/06/18 07:50:51;;;;;;;3.50;1.42;;;;;;;25.64;45.68;100378.72;5052677;28;20028;-77
2022/06/18 07:53:22;;;;;;;4.10;1.48;;;;;;;25.83;45.04;100382.72;5052993;28;20029;-79
2022/06/18 07:55:48;;;;;;;5.38;2.08;;;;;;;25.88;45.07;100387.03;5052522;28;20472;-80
2022/06/18 07:58:14;;;;;;;5.80;1.77;;;;;;;25.68;45.51;100384.25;5052473;28;20051;-80
2022/06/18 08:00:40;;;;;;;4.93;1.40;;;;;;;25.92;44.98;100377.34;5034924;28;20025;-80
2022/06/18 08:03:07;;;;;;;6.35;2.83;;;;;;;26.06;44.72;100370.66;5052343;28;20061;-78
2022/06/18 08:05:32;;;;;;;3.85;1.80;;;;;;;26.15;45.10;100372.84;5051890;28;20040;-79
2022/06/18 08:07:58;;;;;;;2.90;1.50;;;;;;;26.21;44.38;100362.75;5034734;28;20048;-80
2022/06/18 08:10:23;;;;;;;4.43;1.80;;;;;;;26.23;44.26;100358.28;5052639;28;20455;-78
2022/06/18 08:12:51;;;;;;;4.15;1.80;;;;;;;26.32;44.61;100352.09;5052446;28;20099;-80
2022/06/18 08:15:18;;;;;;;4.60;1.77;;;;;;;26.20;44.76;100359.13;5052392;28;20028;-78
2022/06/18 08:17:43;;;;;;;3.08;1.30;;;;;;;26.53;44.72;100350.78;5052139;28;20108;-82
2022/06/18 08:20:09;;;;;;;3.33;1.63;;;;;;;26.51;44.77;100351.22;5052443;28;20106;-83
2022/06/18 08:22:38;;;;;;;3.97;1.70;;;;;;;26.73;43.94;100345.88;5054674;28;20037;-82
2022/06/18 08:25:04;;;;;;;3.40;1.55;;;;;;;26.72;44.02;100341.53;5055184;28;20032;-83
2022/06/18 08:27:30;;;;;;;3.42;1.35;;;;;;;26.61;44.59;100341.78;5056314;28;20133;-80
2022/06/18 08:29:56;;;;;;;3.63;1.42;;;;;;;26.65;44.19;100345.28;5057214;28;20480;-82
2022/06/18 08:32:22;;;;;;;3.72;1.60;;;;;;;26.86;44.14;100340.34;5057915;28;20039;-81
2022/06/18 08:34:47;;;;;;;3.83;1.67;;;;;;;27.12;43.43;100344.03;5056375;28;20108;-81
2022/06/18 08:37:12;;;;;;;4.45;1.92;;;;;;;27.25;42.88;100342.88;5055952;28;20075;-81
2022/06/18 08:39:39;;;;;;;3.00;1.38;;;;;;;27.24;43.12;100341.28;5055843;28;20063;-83
2022/06/18 08:42:07;;;;;;;4.30;1.83;;;;;;;27.34;43.02;100342.19;5056209;28;20466;-81
2022/06/18 08:44:50;;;;;;;8.65;2.10;;;;;;;27.41;42.08;100341.22;5056348;28;20040;-81
2022/06/18 08:47:22;;;;;;;3.63;1.52;;;;;;;27.42;42.02;100340.00;5056338;28;20032;-80
2022/06/18 08:50:14;;;;;;;4.47;1.80;;;;;;;27.26;42.08;100343.66;5056257;28;20436;-80
2022/06/18 08:53:11;;;;;;;4.22;1.30;;;;;;;27.42;42.47;100346.38;5055986;28;20116;-82
2022/06/18 08:56:01;;;;;;;6.90;1.40;;;;;;;27.51;42.09;100349.28;4994828;28;20033;-81
2022/06/18 08:59:10;;;;;;;5.30;1.88;;;;;;;27.11;42.53;100348.06;5056264;28;20025;-79
2022/06/18 09:01:45;;;;;;;5.32;1.75;;;;;;;27.50;42.42;100344.91;5056124;28;20032;-80
2022/06/18 09:04:37;;;;;;;3.90;1.65;;;;;;;27.62;42.20;100348.97;5055839;28;20036;-80
2022/06/18 09:07:33;;;;;;;3.13;1.50;;;;;;;27.72;41.88;100352.72;5055454;28;20027;-81
2022/06/18 09:10:08;;;;;;;3.67;1.50;;;;;;;27.66;42.18;100341.28;5055684;28;20174;-82
2022/06/18 09:12:42;;;;;;;4.20;1.65;;;;;;;27.82;42.05;100335.56;5055747;28;20033;-80
2022/06/18 09:15:26;;;;;;;3.70;1.52;;;;;;;27.64;42.23;100328.97;5055338;28;20040;-78
2022/06/18 09:18:01;;;;;;;6.15;1.63;;;;;;;27.87;42.30;100332.19;5057111;28;20100;-81
2022/06/18 09:20:32;;;;;;;5.38;2.05;;;;;;;27.89;41.61;100323.38;5056019;28;20119;-79
2022/06/18 09:23:07;;;;;;;3.92;1.75;;;;;;;27.90;41.72;100332.56;5055602;28;20069;-83
2022/06/18 09:25:38;;;;;;;6.22;2.63;;;;;;;27.99;41.42;100335.47;5055580;28;20063;-78
2022/06/18 09:28:06;;;;;;;4.85;1.95;;;;;;;27.90;41.14;100335.38;5055361;28;20418;-80
2022/06/18 09:30:42;;;;;;;4.55;2.40;;;;;;;27.90;41.37;100338.16;5055098;28;20032;-79
2022/06/18 09:33:15;;;;;;;4.03;1.33;;;;;;;27.98;41.15;100334.69;5036920;28;20067;-81
2022/06/18 09:36:10;;;;;;;3.55;1.70;;;;;;;28.18;41.03;100334.44;5054908;28;20021;-81
2022/06/18 09:38:38;;;;;;;5.80;1.88;;;;;;;28.12;41.87;100336.22;5048599;28;20033;-81
2022/06/18 09:41:10;;;;;;;4.10;1.73;;;;;;;28.13;41.23;100329.41;5055260;28;20131;-81
2022/06/18 09:43:50;;;;;;;5.82;2.10;;;;;;;28.25;40.84;100339.81;5054997;28;20044;-81
2022/06/18 09:46:22;;;;;;;3.67;1.70;;;;;;;28.31;40.66;100334.44;5055041;28;20348;-83
2022/06/18 09:48:47;;;;;;;4.10;1.63;;;;;;;28.45;40.41;100336.75;5055074;28;20037;-80
2022/06/18 09:51:28;;;;;;;4.07;1.90;;;;;;;28.50;39.85;100338.19;5036967;28;20106;-81
2022/06/18 09:53:58;;;;;;;5.72;1.60;;;;;;;28.51;39.72;100332.16;5055059;28;20036;-82
2022/06/18 09:56:29;;;;;;;5.22;1.70;;;;;;;28.60;40.40;100337.06;5054744;28;20025;-81
2022/06/18 09:59:04;;;;;;;4.57;1.85;;;;;;;28.61;40.66;100338.63;5055000;28;20514;-82
2022/06/18 10:01:43;;;;;;;5.35;1.40;;;;;;;28.72;39.84;100322.22;5054982;28;20064;-82
2022/06/18 10:07:00;;;;;;;5.28;1.88;;;;;;;28.77;39.72;100330.06;5054582;28;20442;-82
2022/06/18 10:09:42;;;;;;;7.45;1.63;;;;;;;28.77;39.85;100332.84;5054918;28;20116;-83
2022/06/18 10:12:23;;;;;;;4.07;1.75;;;;;;;28.84;39.58;100331.81;5054531;28;20033;-82
2022/06/18 10:14:53;;;;;;;6.25;2.13;;;;;;;28.98;39.89;100328.53;5053053;28;20369;-80
2022/06/18 10:17:49;;;;;;;7.28;2.40;;;;;;;29.08;38.83;100324.56;5054401;28;20041;-82
2022/06/18 10:20:36;;;;;;;3.80;1.77;;;;;;;29.20;38.38;100331.31;5054358;28;20057;-82
2022/06/18 10:23:40;;;;;;;3.13;1.40;;;;;;;29.22;37.02;100320.41;5036607;28;20460;-82
2022/06/18 10:26:14;;;;;;;3.50;1.70;;;;;;;29.33;36.90;100312.41;5054169;28;20056;-82
2022/06/18 10:29:01;;;;;;;4.05;1.77;;;;;;;29.30;37.71;100316.13;5054932;28;20115;-83
2022/06/18 10:31:56;;;;;;;5.25;1.60;;;;;;;29.51;37.95;100314.56;5054114;28;20116;-83
2022/06/18 10:34:49;;;;;;;4.53;1.42;;;;;;;29.47;37.51;100309.09;5053244;28;20032;-83
2022/06/18 10:37:44;;;;;;;4.10;1.23;;;;;;;29.56;37.51;100311.94;5053879;28;20052;-82
2022/06/18 10:40:40;;;;;;;6.22;1.95;;;;;;;29.55;37.39;100304.75;5054016;28;20128;-81
2022/06/18 10:44:01;;;;;;;3.63;1.70;;;;;;;29.58;37.07;100306.66;5053794;28;20029;-81
2022/06/18 10:46:26;;;;;;;3.17;1.38;;;;;;;29.47;37.18;100308.31;5053519;28;20036;-81
2022/06/18 10:49:04;;;;;;;3.97;1.30;;;;;;;29.53;37.10;100301.63;5053816;28;20378;-84
2022/06/18 10:51:41;;;;;;;4.60;1.50;;;;;;;29.49;37.34;100303.00;5053346;28;20108;-82
2022/06/18 10:54:07;;;;;;;6.65;1.73;;;;;;;29.65;37.72;100302.78;5053868;28;20431;-83
2022/06/18 10:56:46;;;;;;;3.63;1.60;;;;;;;29.70;36.88;100301.38;5053846;28;20079;-82
2022/06/18 10:59:11;;;;;;;5.82;1.60;;;;;;;29.68;36.81;100301.06;5053640;28;20131;-82
2022/06/18 11:01:39;;;;;;;5.00;1.70;;;;;;;29.66;36.66;100287.50;5035825;28;20068;-82
2022/06/18 11:04:28;;;;;;;5.05;1.63;;;;;;;29.58;36.60;100303.84;5053668;28;20411;-81
2022/06/18 11:06:57;;;;;;;6.45;1.65;;;;;;;29.54;36.96;100299.59;5053660;28;20087;-83
2022/06/18 11:09:27;;;;;;;4.40;1.67;;;;;;;29.55;37.13;100287.91;5053169;28;20029;-81
2022/06/18 11:12:02;;;;;;;4.18;1.55;;;;;;;29.43;36.95;100274.75;5053517;28;20029;-77
2022/06/18 11:14:32;;;;;;;5.22;1.73;;;;;;;29.48;37.36;100284.63;5052913;28;20044;-81
2022/06/18 11:16:58;;;;;;;3.45;1.50;;;;;;;29.72;36.11;100274.41;5053058;28;20072;-82
2022/06/18 11:19:31;;;;;;;3.03;1.50;;;;;;;29.63;36.14;100278.00;5052809;28;20032;-80
2022/06/18 11:22:16;;;;;;;5.30;1.77;;;;;;;29.86;35.95;100273.06;5053203;28;20025;-80
2022/06/18 11:24:43;;;;;;;5.13;1.25;;;;;;;29.81;35.96;100273.69;5053060;28;20532;-79
2022/06/18 11:27:14;;;;;;;4.63;1.65;;;;;;;29.87;36.25;100269.00;5053215;28;20083;-80
2022/06/18 11:29:45;;;;;;;3.78;1.60;;;;;;;30.00;35.25;100261.25;5052872;28;20028;-78
2022/06/18 11:32:27;;;;;;;4.60;1.88;;;;;;;30.02;35.72;100260.78;5052858;28;20067;-80
2022/06/18 11:35:10;;;;;;;3.03;1.30;;;;;;;30.01;35.97;100262.03;5052990;28;20067;-82
2022/06/18 11:37:35;;;;;;;2.88;1.40;;;;;;;30.04;35.57;100263.91;5052902;28;20120;-84
2022/06/18 11:40:21;;;;;;;6.68;1.90;;;;;;;30.13;35.22;100256.31;5052871;28;20512;-82
2022/06/18 11:42:53;;;;;;;5.32;1.65;;;;;;;30.32;34.94;100248.69;5052420;28;20053;-82
2022/06/18 11:45:27;;;;;;;5.38;1.65;;;;;;;30.32;35.06;100253.53;5053005;28;20073;-82
2022/06/18 11:48:06;;;;;;;3.95;1.50;;;;;;;30.18;34.97;100257.72;5053441;28;20025;-84
2022/06/18 11:51:08;;;;;;;6.93;1.60;;;;;;;30.17;35.30;100254.13;5053430;28;20103;-82
2022/06/18 11:53:39;;;;;;;5.05;2.47;;;;;;;30.26;34.86;100244.19;5052644;28;20051;-83
2022/06/18 11:56:14;;;;;;;4.28;1.50;;;;;;;30.45;35.10;100245.75;5034542;28;20025;-81
2022/06/18 11:58:48;;;;;;;6.13;1.92;;;;;;;30.49;34.27;100240.72;5052865;28;20094;-83
2022/06/18 12:01:33;;;;;;;4.97;1.40;;;;;;;30.86;34.15;100230.25;5052856;28;20029;-82
2022/06/18 12:04:30;;;;;;;5.85;1.95;;;;;;;31.09;33.24;100223.19;5034904;28;20479;-81
2022/06/18 12:07:12;;;;;;;7.32;1.92;;;;;;;31.10;32.74;100213.50;5052585;28;20043;-81